createdAt,value
2023-01-11T00:03:22.960Z,7.40
2023-01-11T00:08:28.917Z,7.50
2023-01-11T00:13:33.818Z,7.60
2023-01-11T00:18:37.261Z,7.60
2023-01-11T00:23:43.073Z,7.50
2023-01-11T00:28:50.870Z,7.60
2023-01-11T00:33:55.498Z,7.60
2023-01-11T00:39:04.198Z,7.60
2023-01-11T00:44:32.213Z,7.60
2023-01-11T00:49:37.154Z,7.60
2023-01-11T00:54:42.890Z,7.60
2023-01-11T00:59:49.319Z,7.60
2023-01-11T01:04:57.720Z,7.60
2023-01-11T01:10:04.437Z,7.60
2023-01-11T01:15:09.077Z,7.70
2023-01-11T01:20:13.391Z,7.80
2023-01-11T01:25:20.942Z,7.90
2023-01-11T01:30:24.676Z,7.90
2023-01-11T01:35:28.615Z,8.00
2023-01-11T01:40:34.086Z,8.00
2023-01-11T01:45:41.434Z,8.00
2023-01-11T01:50:47.035Z,8.00
2023-01-11T01:55:55.077Z,8.00
2023-01-11T02:01:23.584Z,8.00
2023-01-11T02:06:29.120Z,8.00
2023-01-11T02:11:43.510Z,8.10
2023-01-11T02:16:49.279Z,8.10
2023-01-11T02:22:06.166Z,8.10
2023-01-11T02:27:26.054Z,8.20
2023-01-11T02:32:34.775Z,8.10
2023-01-11T02:37:42.699Z,8.20
2023-01-11T02:43:08.990Z,8.20
2023-01-11T02:48:24.333Z,8.30
2023-01-11T02:53:30.023Z,8.40
2023-01-11T02:58:40.754Z,8.40
2023-01-11T03:03:46.334Z,8.30
2023-01-11T03:09:18.993Z,8.30
2023-01-11T03:14:26.395Z,8.30
2023-01-11T03:19:36.152Z,8.40
2023-01-11T03:24:44.221Z,8.50
2023-01-11T03:29:51.146Z,8.40
2023-01-11T03:35:20.568Z,8.50
2023-01-11T03:40:27.751Z,8.50
2023-01-11T03:45:32.062Z,8.50
2023-01-11T03:50:41.106Z,8.50
2023-01-11T03:55:45.653Z,8.60
2023-01-11T04:00:52.088Z,8.60
2023-01-11T04:06:02.095Z,8.70
2023-01-11T04:11:06.099Z,8.70
2023-01-11T04:16:11.970Z,8.70
2023-01-11T04:21:19.423Z,8.70
2023-01-11T04:26:23.919Z,8.80
2023-01-11T04:31:27.413Z,8.80
2023-01-11T04:36:36.159Z,8.80
2023-01-11T04:41:57.193Z,8.80
2023-01-11T04:47:01.330Z,8.80
2023-01-11T04:52:11.684Z,8.80
2023-01-11T04:57:16.481Z,8.80
2023-01-11T05:02:24.191Z,8.80
2023-01-11T05:07:33.933Z,8.80
2023-01-11T05:12:39.576Z,8.80
2023-01-11T05:17:48.765Z,8.80
2023-01-11T05:22:59.356Z,8.80
2023-01-11T05:28:04.907Z,8.90
2023-01-11T05:33:09.343Z,8.90
2023-01-11T05:38:14.235Z,8.80
2023-01-11T05:43:18.678Z,8.80
2023-01-11T05:48:22.654Z,8.80
2023-01-11T05:53:27.874Z,8.80
2023-01-11T05:58:35.174Z,8.80
2023-01-11T06:03:39.342Z,8.80
2023-01-11T06:08:46.839Z,8.80
2023-01-11T06:13:50.937Z,8.80
2023-01-11T06:18:55.338Z,8.80
2023-01-11T06:24:01.313Z,8.80
2023-01-11T06:29:05.678Z,8.90
2023-01-11T06:34:10.328Z,8.90
2023-01-11T06:39:22.825Z,8.90
2023-01-11T06:44:26.403Z,8.90
2023-01-11T06:49:30.638Z,8.90
2023-01-11T06:54:36.161Z,8.80
2023-01-11T06:59:41.935Z,8.80
2023-01-11T07:04:47.785Z,8.90
2023-01-11T07:09:54.587Z,8.90
2023-01-11T07:14:58.452Z,8.90
2023-01-11T07:20:02.314Z,9.00
2023-01-11T07:25:10.490Z,8.90
2023-01-11T07:30:15.204Z,9.00
2023-01-11T07:35:18.804Z,9.00
2023-01-11T07:40:24.125Z,8.90
2023-01-11T07:45:44.579Z,8.90
2023-01-11T07:50:50.889Z,9.00
2023-01-11T07:55:56.273Z,9.00
2023-01-11T08:01:01.326Z,8.90
2023-01-11T08:06:05.880Z,9.00
2023-01-11T08:11:32.885Z,9.00
2023-01-11T08:16:38.230Z,9.00
2023-01-11T08:21:48.500Z,9.00
2023-01-11T08:26:54.569Z,9.00
2023-01-11T08:32:01.153Z,9.00
2023-01-11T08:37:05.560Z,9.10
2023-01-11T08:42:12.629Z,9.10
2023-01-11T08:47:16.599Z,9.10
2023-01-11T08:52:21.091Z,9.10
2023-01-11T08:57:25.875Z,9.10
2023-01-11T09:02:29.212Z,9.20
2023-01-11T09:07:32.853Z,9.20
2023-01-11T09:12:42.419Z,9.10
2023-01-11T09:17:45.851Z,9.20
2023-01-11T09:22:56.719Z,9.20
2023-01-11T09:28:02.226Z,9.20
2023-01-11T09:33:06.925Z,9.20
2023-01-11T09:38:12.837Z,9.30
2023-01-11T09:43:21.181Z,9.30
2023-01-11T09:48:33.471Z,9.40
2023-01-11T09:53:38.659Z,9.40
2023-01-11T09:58:56.785Z,9.60
2023-01-11T10:04:33.413Z,9.60
2023-01-11T10:18:22.341Z,9.60
2023-01-11T10:20:47.515Z,9.60
2023-01-11T10:25:54.536Z,9.70
2023-01-11T10:31:26.519Z,9.70
2023-01-11T10:36:52.113Z,9.70
2023-01-11T10:42:06.631Z,9.70
2023-01-11T10:47:14.435Z,9.70
2023-01-11T10:52:36.632Z,9.80
2023-01-11T10:58:01.895Z,9.80
2023-01-11T11:03:31.543Z,9.80
2023-01-11T11:08:38.506Z,10.00
2023-01-11T11:13:49.427Z,10.10
2023-01-11T11:18:58.387Z,10.10
2023-01-11T11:24:04.788Z,10.80
2023-01-11T11:29:11.787Z,10.30
2023-01-11T11:34:17.990Z,10.30
2023-01-11T11:39:22.984Z,10.30
2023-01-11T11:44:36.345Z,10.30
2023-01-11T11:49:42.275Z,10.40
2023-01-11T11:54:53.110Z,10.60
2023-01-11T12:00:03.431Z,10.50
2023-01-11T12:05:13.551Z,10.40
2023-01-11T12:10:24.989Z,10.90
2023-01-11T12:15:29.751Z,10.20
2023-01-11T12:20:39.504Z,10.20
2023-01-11T12:25:49.218Z,10.10
2023-01-11T12:30:56.302Z,10.20
2023-01-11T12:36:03.897Z,10.20
2023-01-11T12:41:44.240Z,10.30
2023-01-11T12:46:59.933Z,10.30
2023-01-11T12:52:29.326Z,10.10
2023-01-11T12:57:38.278Z,10.10
2023-01-11T13:02:59.875Z,10.00
2023-01-11T13:08:13.046Z,10.00
2023-01-11T13:13:19.611Z,10.00
2023-01-11T13:18:33.185Z,9.90
2023-01-11T13:23:42.254Z,10.00
2023-01-11T13:29:00.347Z,10.10
2023-01-11T13:34:06.456Z,9.90
2023-01-11T13:39:16.568Z,9.90
2023-01-11T13:44:25.173Z,9.90
2023-01-11T13:49:50.122Z,9.80
2023-01-11T13:54:58.405Z,9.70
2023-01-11T14:00:08.150Z,9.70
2023-01-11T14:05:21.804Z,9.80
2023-01-11T14:10:40.118Z,9.70
2023-01-11T14:15:47.558Z,10.10
2023-01-11T14:21:03.273Z,10.00
2023-01-11T14:26:51.297Z,10.50
2023-01-11T14:32:04.273Z,11.30
2023-01-11T14:37:34.788Z,11.90
2023-01-11T14:43:25.089Z,10.70
2023-01-11T14:48:37.136Z,9.70
2023-01-11T14:53:43.880Z,9.50
2023-01-11T14:59:02.852Z,9.50
2023-01-11T15:04:25.287Z,9.40
2023-01-11T15:09:46.938Z,9.40
2023-01-11T15:14:54.384Z,9.10
2023-01-11T15:19:59.557Z,8.80
2023-01-11T15:25:06.141Z,8.50
2023-01-11T15:30:36.405Z,8.20
2023-01-11T15:35:44.541Z,8.10
2023-01-11T15:40:56.206Z,8.20
2023-01-11T15:46:56.540Z,8.00
2023-01-11T15:52:24.423Z,8.00
2023-01-11T15:57:47.459Z,7.70
2023-01-11T16:03:31.616Z,7.80
2023-01-11T16:08:42.366Z,7.60
2023-01-11T16:14:23.348Z,7.40
2023-01-11T16:19:27.443Z,7.40
2023-01-11T16:24:35.176Z,7.30
2023-01-11T16:29:39.438Z,7.20
2023-01-11T16:34:47.139Z,7.30
2023-01-11T16:39:55.040Z,7.30
2023-01-11T16:45:03.421Z,7.40
2023-01-11T16:50:27.708Z,7.30
2023-01-11T16:55:38.804Z,7.30
2023-01-11T17:00:45.098Z,7.30
2023-01-11T17:05:56.476Z,7.20
2023-01-11T17:11:07.204Z,7.10
2023-01-11T17:16:17.317Z,7.20
2023-01-11T17:21:22.358Z,7.10
2023-01-11T17:26:29.847Z,7.20
2023-01-11T17:31:34.690Z,7.30
2023-01-11T17:36:38.512Z,7.40
2023-01-11T17:42:01.402Z,7.40
2023-01-11T17:47:05.959Z,7.40
2023-01-11T17:52:18.896Z,7.30
2023-01-11T17:57:28.905Z,7.30
2023-01-11T18:02:33.038Z,7.20
2023-01-11T18:07:37.879Z,7.20
2023-01-11T18:12:45.020Z,7.10
2023-01-11T18:17:53.091Z,7.10
2023-01-11T18:22:58.748Z,7.10
2023-01-11T18:28:34.816Z,7.20
2023-01-11T18:33:38.494Z,7.30
2023-01-11T18:38:42.141Z,7.30
2023-01-11T18:43:47.126Z,7.30
2023-01-11T18:48:50.958Z,7.10
2023-01-11T18:53:54.698Z,7.20
2023-01-11T18:59:00.148Z,7.20
2023-01-11T19:04:08.348Z,7.20
2023-01-11T19:09:13.408Z,7.30
2023-01-11T19:14:19.181Z,7.30
2023-01-11T19:19:23.351Z,7.40
2023-01-11T19:24:27.530Z,7.20
2023-01-11T19:29:34.900Z,7.10
2023-01-11T19:34:39.778Z,7.10
2023-01-11T19:39:45.069Z,7.10
2023-01-11T19:44:50.759Z,7.10
2023-01-11T19:49:56.487Z,7.10
2023-01-11T19:55:04.468Z,7.10
2023-01-11T20:00:14.199Z,7.20
2023-01-11T20:05:19.551Z,7.20
2023-01-11T20:10:23.509Z,7.30
2023-01-11T20:15:32.420Z,7.40
2023-01-11T20:20:37.878Z,7.50
2023-01-11T20:25:41.481Z,7.40
2023-01-11T20:30:47.380Z,7.50
2023-01-11T20:35:51.265Z,7.30
2023-01-11T20:40:54.966Z,7.40
2023-01-11T20:46:01.264Z,7.30
2023-01-11T20:51:05.580Z,7.40
2023-01-11T20:56:10.151Z,7.40
2023-01-11T21:01:19.624Z,7.50
2023-01-11T21:06:23.344Z,7.50
2023-01-11T21:11:27.973Z,7.50
2023-01-11T21:16:33.436Z,7.60
2023-01-11T21:21:37.323Z,7.70
2023-01-11T21:26:42.689Z,7.60
2023-01-11T21:31:54.951Z,7.60
2023-01-11T21:37:00.561Z,7.50
2023-01-11T21:42:07.948Z,7.60
2023-01-11T21:47:14.717Z,7.60
2023-01-11T21:52:19.788Z,7.60
2023-01-11T21:57:26.372Z,7.60
2023-01-11T22:02:35.169Z,7.70
2023-01-11T22:07:42.597Z,7.70
2023-01-11T22:12:47.131Z,7.70
2023-01-11T22:17:52.029Z,7.80
2023-01-11T22:22:56.276Z,7.90
2023-01-11T22:27:59.966Z,7.90
2023-01-11T22:33:09.623Z,7.90
2023-01-11T22:38:16.474Z,7.90
2023-01-11T22:43:22.643Z,7.90
2023-01-11T22:48:32.000Z,7.90
2023-01-11T22:53:38.275Z,8.00
2023-01-11T22:58:42.133Z,8.00
2023-01-11T23:03:47.270Z,8.00
2023-01-11T23:08:51.651Z,8.00
2023-01-11T23:14:04.122Z,8.10
2023-01-11T23:19:10.053Z,8.10
2023-01-11T23:24:14.066Z,8.10
2023-01-11T23:29:19.966Z,8.20
2023-01-11T23:34:24.693Z,8.20
2023-01-11T23:39:29.018Z,8.30
2023-01-11T23:44:36.235Z,8.20
2023-01-11T23:49:45.052Z,8.20
2023-01-11T23:54:49.329Z,8.20
2023-01-11T23:59:54.867Z,7.90
